• Join FlightAware (Why Join?)
  • Login
  • US Flag 
11:38PM EDT


 

Airport Tracker/Info


-or-


 

Live Flight TrackerFlight Track Log ✈ N156DL ✈ 07-Apr-2013 ✈ LFPG / CDG - KATL

Flight Track Log - Related Links

Times and Time Zones

All times are in EDT time to prevent confusion due to time zone crossing. See the N156DL flight status page for this flight to view local times or setup timezone preferences in your user account.

Time Position Orientation Groundspeed Altitude Reporting Facility
EDT Latitude Longitude Course Direction KTS MPH feet Rate Location/Type
02:50AM 49.0532 2.3877 291° West  Level FlightAware Approximate
02:51AM 49.0954 2.2184 291° West  Level FlightAware Approximate
02:52AM 49.1325 2.0540 289° West  Level FlightAware Approximate
02:53AM 49.1773 1.9003 288° West  Level FlightAware Approximate
02:54AM 49.2117 1.7399 288° West  Level FlightAware Approximate
02:55AM 49.2520 1.5827 292° West  Level FlightAware Approximate
02:56AM 49.2932 1.4259 292° West  Level FlightAware Approximate
02:57AM 49.3330 1.2680 291° West  Level FlightAware Approximate
02:58AM 49.3769 1.1128 295° West  Level FlightAware Approximate
02:58AM 49.0238 2.3696 295° West 1 1 11,900  Level FlightAware UK
02:58AM 49.0206 2.3207 264° West 402 463 13,100 3,120 Climbing FlightAware UK
02:58AM 49.0221 2.2713 273° West 406 467 13,800 2,280 Climbing FlightAware UK
02:59AM 49.0231 2.2205 272° West 414 476 14,500 2,460 Climbing FlightAware UK
02:59AM 49.0252 2.1697 274° West 412 474 15,300 2,220 Climbing FlightAware UK
02:59AM 49.0277 2.0814 273° West 420 483 16,300 1,980 Climbing FlightAware UK
03:00AM 49.0299 2.0276 273° West 426 490 16,900 2,160 Climbing FlightAware UK
03:00AM 49.0321 1.9743 274° West 432 497 17,600 2,280 Climbing FlightAware UK
03:00AM 49.0334 1.9186 272° West 436 502 18,300 2,280 Climbing FlightAware UK
03:01AM 49.0350 1.8645 273° West 440 506 19,000 2,100 Climbing FlightAware UK
03:01AM 49.0375 1.7728 272° West 446 513 20,000 2,220 Climbing FlightAware UK
03:02AM 49.0400 1.6998 273° West 458 527 21,000 2,820 Climbing FlightAware UK
03:02AM 49.0414 1.6443 272° West 460 529 22,000 2,460 Climbing FlightAware UK
03:02AM 49.0428 1.5892 272° West 464 534 22,500 1,980 Climbing FlightAware UK
03:02AM 49.0441 1.5342 272° West 466 536 23,200 1,980 Climbing FlightAware UK
03:03AM 49.0456 1.4800 272° West 470 541 23,700 1,800 Climbing FlightAware UK
03:03AM 49.0470 1.4244 272° West 474 545 24,300 1,140 Climbing FlightAware UK
03:03AM 49.0485 1.3694 272° West 478 550 24,400 120 Climbing FlightAware UK
03:04AM 49.0498 1.3145 272° West 478 550 24,400 120 Level FlightAware UK
03:04AM 49.0518 1.2404 272° West 478 550 24,500 840 Climbing FlightAware UK
03:04AM 49.0531 1.1847 272° West 478 550 25,000 2,280 Climbing FlightAware UK
03:05AM 49.0541 1.1292 272° West 472 543 25,900 1,860 Climbing FlightAware UK
03:05AM 49.0558 1.0396 272° West 466 536 26,500 600 Climbing FlightAware UK
03:05AM 49.0571 0.9885 272° West 464 534 26,400 -180 Descending FlightAware UK
03:06AM 49.0584 0.9356 272° West 462 532 26,400  Level FlightAware UK
03:06AM 49.0594 0.8837 272° West 462 532 26,400  Level FlightAware UK
03:06AM 49.0605 0.8301 272° West 462 532 26,400  Level FlightAware UK
03:07AM 49.0617 0.7780 272° West 464 534 26,400 120 Level FlightAware UK
03:07AM 49.0628 0.7246 272° West 466 536 26,500 120 Climbing FlightAware UK
03:07AM 49.0638 0.6706 272° West 466 536 26,500  Level FlightAware UK
03:08AM 49.0650 0.5984 271° West 470 541 26,500 960 Level FlightAware UK
03:08AM 49.0677 0.5272 273° West 468 539 27,300 1,800 Climbing FlightAware UK
03:08AM 49.0706 0.4737 275° West 466 536 27,800 1,800 Climbing FlightAware UK
03:09AM 49.0746 0.4212 277° West 468 539 28,400 720 Climbing FlightAware UK
03:09AM 49.0810 0.3340 276° West 466 536 28,400  Level FlightAware UK
03:09AM 49.0848 0.2817 276° West 462 532 28,400 120 Level FlightAware UK
03:10AM 49.0885 0.2302 276° West 462 532 28,500 120 Climbing FlightAware UK
03:10AM 49.0923 0.1785 276° West 462 532 28,500  Level FlightAware UK
03:10AM 49.0956 0.1274 276° West 462 532 28,500  Level FlightAware UK
03:11AM 49.1000 0.0578 276° West 462 532 28,500  Level FlightAware UK
03:11AM 49.1061 -0.0284 276° West 464 534 28,500  Level FlightAware UK
03:12AM 49.1130 -0.1339 276° West 466 536 28,500  Level FlightAware UK
03:12AM 49.1163 -0.1872 275° West 468 539 28,500  Level FlightAware UK
03:13AM 49.1207 -0.2582 275° West 468 539 28,500  Level FlightAware UK
03:13AM 49.1252 -0.3287 276° West 470 541 28,500  Level FlightAware UK
03:14AM 49.1329 -0.4535 275° West 468 539 28,500  Level FlightAware UK
03:14AM 49.1363 -0.5061 276° West 468 539 28,500  Level FlightAware UK
03:14AM 49.1395 -0.5587 275° West 468 539 28,500  Level FlightAware UK
03:15AM 49.1436 -0.6297 275° West 468 539 28,500  Level FlightAware UK
03:15AM 49.1468 -0.6829 275° West 468 539 28,500  Level FlightAware UK
03:15AM 49.1498 -0.7362 275° West 466 536 28,500  Level FlightAware UK
03:16AM 49.1561 -0.8419 275° West 466 536 28,500  Level FlightAware UK
03:16AM 49.1593 -0.8956 275° West 464 534 28,500  Level FlightAware UK
03:17AM 49.1634 -0.9658 275° West 464 534 28,500  Level FlightAware UK
03:17AM 49.1666 -1.0188 275° West 464 534 28,500  Level FlightAware UK
03:18AM 49.1734 -1.1424 275° West 464 534 28,500  Level FlightAware UK
03:18AM 49.1763 -1.1964 275° West 464 534 28,500  Level FlightAware UK
03:18AM 49.1792 -1.2491 275° West 464 534 28,500  Level FlightAware UK
03:18AM 49.1821 -1.3023 275° West 466 536 28,500  Level FlightAware UK
03:19AM 49.1851 -1.3561 275° West 466 536 28,500  Level FlightAware UK
03:19AM 49.1882 -1.4088 275° West 466 536 28,500  Level FlightAware UK
03:19AM 49.1912 -1.4614 275° West 466 536 28,500  Level FlightAware UK
03:20AM 49.1942 -1.5148 275° West 466 536 28,500  Level FlightAware UK
03:20AM 49.1969 -1.5682 275° West 466 536 28,500  Level FlightAware UK
03:20AM 49.1998 -1.6215 275° West 466 536 28,500  Level FlightAware UK
03:21AM 49.2025 -1.6748 274° West 464 534 28,500  Level FlightAware UK
03:21AM 49.2055 -1.7282 275° West 464 534 28,500  Level FlightAware UK
03:21AM 49.2112 -1.7807 280° West 466 536 28,500  Level FlightAware UK
03:21AM 49.2180 -1.8331 281° West 466 536 28,500  Level FlightAware UK
03:22AM 49.2305 -1.9201 282° West 466 536 28,500  Level FlightAware UK
03:22AM 49.2390 -1.9716 284° West 464 534 28,500  Level FlightAware UK
03:23AM 49.2505 -2.0407 284° West 466 536 28,500  Level FlightAware UK
03:23AM 49.2588 -2.0923 284° West 466 536 28,500  Level FlightAware UK
03:23AM 49.2659 -2.1453 282° West 466 536 28,500  Level FlightAware UK
03:24AM 49.2740 -2.1971 284° West 466 536 28,500  Level FlightAware UK
03:24AM 49.2835 -2.2477 286° West 466 536 28,500  Level FlightAware UK
03:24AM 49.2915 -2.2995 283° West 466 536 28,500  Level FlightAware UK
03:24AM 49.2998 -2.3516 284° West 466 536 28,500  Level FlightAware UK
03:25AM 49.3078 -2.4036 283° West 464 534 28,500  Level FlightAware UK
03:25AM 49.3157 -2.4553 283° West 464 534 28,500  Level FlightAware UK
03:25AM 49.3237 -2.5074 283° West 464 534 28,500  Level FlightAware UK
03:26AM 49.3318 -2.5596 283° West 464 534 28,500  Level FlightAware UK
03:26AM 49.3451 -2.6460 283° West 464 534 28,500  Level FlightAware UK
03:27AM 49.3585 -2.7334 283° West 464 534 28,500  Level FlightAware UK
03:27AM 49.3665 -2.7855 283° West 464 534 28,500  Level FlightAware UK
03:27AM 49.3797 -2.8725 283° West 462 532 28,500  Level FlightAware UK
03:28AM 49.3876 -2.9247 283° West 464 534 28,500  Level FlightAware UK
03:28AM 49.3954 -2.9771 283° West 464 534 28,500  Level FlightAware UK
03:28AM 49.4033 -3.0288 283° West 462 532 28,500  Level FlightAware UK
03:29AM 49.4112 -3.0813 283° West 462 532 28,500  Level FlightAware UK
03:29AM 49.4189 -3.1338 283° West 464 534 28,500  Level FlightAware UK
03:29AM 49.4268 -3.1870 283° West 464 534 28,500  Level FlightAware UK
03:30AM 49.4372 -3.2572 283° West 464 534 28,500  Level FlightAware UK
03:30AM 49.4449 -3.3092 283° West 464 534 28,500  Level FlightAware UK
03:30AM 49.4526 -3.3619 283° West 464 534 28,500  Level FlightAware UK
03:31AM 49.4603 -3.4147 283° West 464 534 28,500  Level FlightAware UK
03:31AM 49.4680 -3.4676 283° West 464 534 28,500  Level FlightAware UK
03:31AM 49.4783 -3.5376 283° West 464 534 28,500  Level FlightAware UK
03:32AM 49.4861 -3.5905 283° West 464 534 28,500  Level FlightAware UK
03:32AM 49.4937 -3.6436 282° West 464 534 28,500  Level FlightAware UK
03:32AM 49.5012 -3.6967 282° West 464 534 28,500  Level FlightAware UK
03:32AM 49.5087 -3.7498 282° West 464 534 28,500  Level FlightAware UK
03:33AM 49.5214 -3.8385 282° West 464 534 28,500  Level FlightAware UK
03:33AM 49.5340 -3.9268 282° West 464 534 28,500  Level FlightAware UK
03:34AM 49.5415 -3.9802 282° West 464 534 28,500  Level FlightAware UK
03:34AM 49.5490 -4.0336 282° West 464 534 28,500  Level FlightAware UK
03:34AM 49.5566 -4.0870 282° West 464 534 28,500  Level FlightAware UK
03:35AM 49.5642 -4.1404 282° West 466 536 28,500  Level FlightAware UK
03:35AM 49.5942 -4.2001 308° West 462 532 28,500  Level FlightAware UK
03:35AM 49.6220 -4.2608 305° West 462 532 28,500  Level FlightAware UK
03:36AM 49.6508 -4.3204 307° West 462 532 28,500  Level FlightAware UK
03:36AM 49.6741 -4.3637 310° West 462 532 28,500  Level FlightAware UK
03:36AM 49.6970 -4.4070 309° West 462 532 28,500  Level FlightAware UK
03:37AM 49.7202 -4.4513 309° West 464 534 28,500  Level FlightAware UK
03:37AM 49.7426 -4.4949 308° West 464 534 28,500  Level FlightAware UK
03:37AM 49.7651 -4.5392 308° West 464 534 28,500  Level FlightAware UK
03:38AM 49.7877 -4.5836 308° West 464 534 28,500  Level FlightAware UK
03:38AM 49.8103 -4.6282 308° West 464 534 28,500  Level FlightAware UK
03:38AM 49.8329 -4.6726 308° West 464 534 28,500  Level FlightAware UK
03:39AM 49.8555 -4.7171 308° West 464 534 28,500  Level FlightAware UK
03:39AM 49.8782 -4.7616 308° West 464 534 28,500  Level FlightAware UK
03:39AM 49.9006 -4.8055 308° West 464 534 28,500  Level FlightAware UK
03:39AM 49.9233 -4.8501 308° West 462 532 28,500  Level FlightAware UK
03:40AM 49.9461 -4.8945 309° West 464 534 28,500  Level FlightAware UK
03:40AM 49.9689 -4.9390 308° West 462 532 28,500  Level FlightAware UK
03:40AM 49.9915 -4.9838 308° West 462 532 28,500  Level FlightAware UK
03:41AM 50.0142 -5.0286 308° West 464 534 28,500  Level FlightAware UK
03:41AM 50.0368 -5.0734 308° West 464 534 28,500  Level FlightAware UK
03:41AM 50.0595 -5.1183 308° West 464 534 28,500  Level FlightAware UK
03:42AM 50.0822 -5.1633 308° West 464 534 28,500  Level FlightAware UK
03:42AM 50.1049 -5.2084 308° West 464 534 28,500  Level FlightAware UK
03:42AM 50.1276 -5.2536 308° West 464 534 28,500  Level FlightAware UK
03:42AM 50.1503 -5.2987 308° West 464 534 28,500  Level FlightAware UK
03:43AM 50.1731 -5.3440 308° West 464 534 28,500  Level FlightAware UK
03:43AM 50.1958 -5.3894 308° West 464 534 28,500  Level FlightAware UK
03:43AM 50.2184 -5.4349 308° West 464 534 28,500  Level FlightAware UK
03:44AM 50.2410 -5.4804 308° West 464 534 28,500  Level FlightAware UK
03:44AM 50.2637 -5.5259 308° West 464 534 28,500  Level FlightAware UK
03:44AM 50.2864 -5.5716 308° West 462 532 28,500  Level FlightAware UK
03:45AM 50.3090 -5.6174 308° West 462 532 28,500  Level FlightAware UK
03:45AM 50.3317 -5.6632 308° West 462 532 28,500  Level FlightAware UK
03:45AM 50.3544 -5.7091 308° West 462 532 28,500  Level FlightAware UK
03:45AM 50.3771 -5.7551 308° West 462 532 28,500  Level FlightAware UK
03:46AM 50.3998 -5.8013 308° West 462 532 28,500  Level FlightAware UK
03:46AM 50.4225 -5.8476 308° West 462 532 28,500  Level FlightAware UK
03:46AM 50.4452 -5.8939 308° West 462 532 28,500  Level FlightAware UK
03:47AM 50.4677 -5.9399 308° West 462 532 28,500  Level FlightAware UK
03:47AM 50.4904 -5.9865 308° West 462 532 28,500  Level FlightAware UK
03:47AM 50.5132 -6.0330 308° West 462 532 28,500  Level FlightAware UK
03:48AM 50.5360 -6.0798 307° West 464 534 28,500  Level FlightAware UK
03:48AM 50.5588 -6.1266 308° West 464 534 28,500  Level FlightAware UK
03:48AM 50.5817 -6.1735 307° West 464 534 28,500  Level FlightAware UK
03:48AM 50.6044 -6.2206 307° West 464 534 28,500  Level FlightAware UK
03:49AM 50.6271 -6.2678 307° West 464 534 28,500  Level FlightAware UK
03:49AM 50.6498 -6.3151 307° West 464 534 28,500  Level FlightAware UK
03:49AM 50.6726 -6.3623 307° West 464 534 28,500  Level FlightAware UK
03:50AM 50.6953 -6.4096 307° West 464 534 28,500  Level FlightAware UK
03:50AM 50.7181 -6.4570 307° West 464 534 28,500  Level FlightAware UK
03:50AM 50.7408 -6.5044 307° West 464 534 28,500  Level FlightAware UK
03:51AM 50.7636 -6.5519 307° West 464 534 28,500  Level FlightAware UK
03:51AM 50.7863 -6.5995 307° West 464 534 28,500  Level FlightAware UK
03:51AM 50.8091 -6.6472 307° West 462 532 28,500  Level FlightAware UK
03:51AM 50.8319 -6.6950 307° West 462 532 28,500  Level FlightAware UK
03:52AM 50.8545 -6.7430 307° West 464 534 28,500  Level FlightAware UK
03:52AM 50.8771 -6.7911 307° West 464 534 28,500  Level FlightAware UK
03:52AM 50.8998 -6.8393 307° West 462 532 28,500  Level FlightAware UK
03:53AM 50.9224 -6.8875 307° West 462 532 28,500  Level FlightAware UK
03:53AM 50.9451 -6.9357 307° West 462 532 28,500  Level FlightAware UK
03:53AM 50.9678 -6.9839 307° West 462 532 28,500  Level FlightAware UK
03:54AM 50.9905 -7.0323 307° West 464 534 28,500  Level FlightAware UK
03:54AM 51.0127 -7.0813 306° West 462 532 28,500  Level FlightAware UK
03:54AM 51.0342 -7.1303 305° West 462 532 28,500  Level FlightAware UK
03:54AM 51.0553 -7.1804 304° West 462 532 28,500  Level FlightAware UK
03:55AM 51.0765 -7.2304 304° West 462 532 28,500  Level FlightAware UK
03:55AM 51.0980 -7.2802 304° West 462 532 28,500  Level FlightAware UK
03:55AM 51.1195 -7.3299 305° West 462 532 28,500  Level FlightAware UK
03:56AM 51.1410 -7.3798 305° West 462 532 28,500  Level FlightAware UK
03:56AM 51.1627 -7.4296 305° West 460 529 28,500  Level FlightAware UK
03:56AM 51.1845 -7.4796 305° West 460 529 28,500  Level FlightAware UK
03:57AM 51.2061 -7.5296 305° West 464 534 28,500  Level FlightAware UK
03:57AM 51.2278 -7.5798 305° West 464 534 28,500  Level FlightAware UK
03:57AM 51.2494 -7.6300 305° West 464 534 28,500  Level FlightAware UK
03:57AM 51.2711 -7.6803 305° West 464 534 28,500  Level FlightAware UK
03:58AM 51.2927 -7.7307 305° West 464 534 28,500  Level FlightAware UK
03:58AM 51.3143 -7.7812 304° West 462 532 28,500  Level FlightAware UK
03:58AM 51.3359 -7.8318 304° West 464 534 28,500  Level FlightAware UK
03:59AM 51.3576 -7.8822 305° West 464 534 28,500  Level FlightAware UK
03:59AM 51.3792 -7.9328 304° West 464 534 28,500  Level FlightAware UK
03:59AM 51.4008 -7.9836 304° West 462 532 28,500  Level FlightAware UK
04:00AM 51.4224 -8.0344 304° West 462 532 28,500  Level FlightAware UK
04:00AM 51.4440 -8.0851 304° West 462 532 28,500  Level FlightAware UK
04:00AM 51.4655 -8.1359 304° West 462 532 28,500  Level FlightAware UK
04:00AM 51.4870 -8.1868 304° West 462 532 28,500  Level FlightAware UK
04:01AM 51.5084 -8.2379 304° West 462 532 28,500  Level FlightAware UK
04:01AM 51.5295 -8.2884 304° West 462 532 28,500  Level FlightAware UK
04:01AM 51.5510 -8.3394 304° West 462 532 28,500  Level FlightAware UK
04:02AM 51.5723 -8.3907 304° West 462 532 28,500  Level FlightAware UK
04:02AM 51.5936 -8.4420 304° West 462 532 28,500  Level FlightAware UK
04:02AM 51.6221 -8.5105 304° West 462 532 28,500  Level FlightAware UK
04:03AM 51.6434 -8.5619 304° West 462 532 28,500  Level FlightAware UK
04:03AM 51.6648 -8.6136 304° West 462 532 28,500  Level FlightAware UK
04:03AM 51.6861 -8.6653 304° West 460 529 28,500  Level FlightAware UK
04:04AM 51.7075 -8.7171 304° West 460 529 28,500  Level FlightAware UK
04:04AM 51.7289 -8.7689 304° West 460 529 28,500  Level FlightAware UK
04:04AM 51.7503 -8.8208 304° West 460 529 28,500  Level FlightAware UK
04:04AM 51.7716 -8.8728 303° West 462 532 28,500  Level FlightAware UK
04:05AM 51.7929 -8.9250 304° West 462 532 28,500  Level FlightAware UK
04:05AM 51.8142 -8.9772 303° West 462 532 28,500 120 Level FlightAware UK
04:07AM 51.8449 -9.2039 282° West  Level Estimated
04:14AM 52.0028 -10.4297 282° West  Level Estimated
04:15AM 52.0243 -10.6055 281° West  Level Estimated
04:16AM 52.0456 -10.7814 281° West  Level Estimated
04:17AM 52.0666 -10.9576 281° West  Level Estimated
04:18AM 52.0873 -11.1339 281° West  Level Estimated
04:19AM 52.1078 -11.3103 281° West  Level Estimated
04:20AM 52.1280 -11.4870 281° West  Level Estimated
04:21AM 52.1479 -11.6637 280° West  Level Estimated
04:22AM 52.1676 -11.8407 280° West  Level Estimated
04:23AM 52.1870 -12.0178 280° West  Level Estimated
04:24AM 52.2061 -12.1950 280° West  Level Estimated
04:25AM 52.2250 -12.3724 280° West  Level Estimated
04:26AM 52.2436 -12.5500 280° West  Level Estimated
04:27AM 52.2620 -12.7277 280° West  Level Estimated
04:28AM 52.2800 -12.9055 280° West  Level Estimated
04:29AM 52.2979 -13.0835 279° West  Level Estimated
04:30AM 52.3154 -13.2617 279° West  Level Estimated
04:31AM 52.3327 -13.4399 279° West  Level Estimated
04:32AM 52.3497 -13.6183 279° West  Level Estimated
04:33AM 52.3664 -13.7969 279° West  Level Estimated
04:34AM 52.3829 -13.9756 279° West  Level Estimated
04:35AM 52.3991 -14.1544 279° West  Level Estimated
04:36AM 52.4150 -14.3333 278° West  Level Estimated
04:37AM 52.4307 -14.5124 278° West  Level Estimated
04:38AM 52.4461 -14.6916 278° West  Level Estimated
04:39AM 52.4612 -14.8709 278° West  Level Estimated
04:40AM 52.4760 -15.0504 278° West  Level Estimated
04:41AM 52.4907 -15.2315 278° West  Level Estimated
04:42AM 52.5051 -15.4127 278° West  Level Estimated
04:43AM 52.5193 -15.5941 277° West  Level Estimated
04:44AM 52.5331 -15.7756 277° West  Level Estimated
04:45AM 52.5467 -15.9572 277° West  Level Estimated
04:46AM 52.5601 -16.1388 277° West  Level Estimated
04:47AM 52.5731 -16.3207 277° West  Level Estimated
04:48AM 52.5858 -16.5026 277° West  Level Estimated
04:49AM 52.5983 -16.6846 277° West  Level Estimated
04:50AM 52.6109 -16.8721 276° West  Level Estimated
04:51AM 52.6231 -17.0597 276° West  Level Estimated
04:52AM 52.6351 -17.2475 276° West  Level Estimated
04:53AM 52.6467 -17.4353 276° West  Level Estimated
04:54AM 52.6581 -17.6232 276° West  Level Estimated
04:55AM 52.6692 -17.8113 276° West  Level Estimated
04:56AM 52.6800 -17.9994 275° West  Level Estimated
04:57AM 52.6904 -18.1876 275° West  Level Estimated
04:58AM 52.7006 -18.3759 275° West  Level Estimated
04:59AM 52.7105 -18.5643 275° West  Level Estimated
05:00AM 52.7201 -18.7528 275° West  Level Estimated
05:01AM 52.7293 -18.9413 275° West  Level Estimated
05:02AM 52.7383 -19.1299 275° West  Level Estimated
05:03AM 52.7470 -19.3186 274° West  Level Estimated
05:04AM 52.7554 -19.5074 274° West  Level Estimated
05:04AM 55.0000 -20.0000 284° West 430 495 36,000  Level ETMS Enhanced Traffic Management System
05:05AM 52.7635 -19.6963 274° West  Level Estimated
05:06AM 52.7713 -19.8871 274° West  Level Estimated
05:07AM 52.7789 -20.0780 274° West  Level Estimated
05:08AM 52.7861 -20.2690 274° West  Level Estimated
05:09AM 52.7930 -20.4601 274° West  Level Estimated
05:10AM 55.1690 -21.2197 283° West 430 495 36,000  Level FlightAware Transoceanic
05:11AM 55.1960 -21.4240 283° West 430 495 36,000  Level FlightAware Transoceanic
05:12AM 55.2227 -21.6285 283° West 430 495 36,000  Level FlightAware Transoceanic
05:13AM 55.2490 -21.8334 283° West 430 495 36,000  Level FlightAware Transoceanic
05:14AM 55.2749 -22.0385 282° West 430 495 36,000  Level FlightAware Transoceanic
05:15AM 55.3005 -22.2438 282° West 430 495 36,000  Level FlightAware Transoceanic
05:16AM 55.3258 -22.4494 282° West 430 495 36,000  Level FlightAware Transoceanic
05:17AM 55.3507 -22.6553 282° West 430 495 36,000  Level FlightAware Transoceanic
05:18AM 55.3753 -22.8615 282° West 430 495 36,000  Level FlightAware Transoceanic
05:19AM 55.3996 -23.0679 282° West 430 495 36,000  Level FlightAware Transoceanic
05:20AM 55.4234 -23.2745 281° West 430 495 36,000  Level FlightAware Transoceanic
05:21AM 55.4470 -23.4814 281° West 430 495 36,000  Level FlightAware Transoceanic
05:22AM 55.4701 -23.6885 281° West 430 495 36,000  Level FlightAware Transoceanic
05:23AM 55.4930 -23.8959 281° West 430 495 36,000  Level FlightAware Transoceanic
05:24AM 55.5155 -24.1035 281° West 430 495 36,000  Level FlightAware Transoceanic
05:25AM 55.5376 -24.3114 281° West 430 495 36,000  Level FlightAware Transoceanic
05:26AM 55.5594 -24.5195 280° West 430 495 36,000  Level FlightAware Transoceanic
05:27AM 55.5808 -24.7278 280° West 430 495 36,000  Level FlightAware Transoceanic
05:28AM 55.6019 -24.9363 280° West 430 495 36,000  Level FlightAware Transoceanic
05:29AM 55.6226 -25.1451 280° West 430 495 36,000  Level FlightAware Transoceanic
05:30AM 55.6430 -25.3541 280° West 430 495 36,000  Level FlightAware Transoceanic
05:31AM 55.6630 -25.5633 280° West 430 495 36,000  Level FlightAware Transoceanic
05:32AM 55.6826 -25.7727 279° West 430 495 36,000  Level FlightAware Transoceanic
05:33AM 55.7019 -25.9823 279° West 430 495 36,000  Level FlightAware Transoceanic
05:34AM 55.7209 -26.1922 279° West 430 495 36,000  Level FlightAware Transoceanic
05:35AM 55.7394 -26.4022 279° West 430 495 36,000  Level FlightAware Transoceanic
05:36AM 55.7577 -26.6124 279° West 430 495 36,000  Level FlightAware Transoceanic
05:37AM 55.7755 -26.8228 278° West 430 495 36,000  Level FlightAware Transoceanic
05:38AM 55.7930 -27.0334 278° West 430 495 36,000  Level FlightAware Transoceanic
05:39AM 55.8102 -27.2442 278° West 430 495 36,000  Level FlightAware Transoceanic
05:40AM 55.8270 -27.4552 278° West 430 495 36,000  Level FlightAware Transoceanic
05:41AM 55.8434 -27.6664 278° West 430 495 36,000  Level FlightAware Transoceanic
05:42AM 55.8594 -27.8777 278° West 430 495 36,000  Level FlightAware Transoceanic
05:43AM 55.8751 -28.0892 277° West 430 495 36,000  Level FlightAware Transoceanic
05:44AM 55.8905 -28.3009 277° West 430 495 36,000  Level FlightAware Transoceanic
05:45AM 55.9054 -28.5128 277° West 430 495 36,000  Level FlightAware Transoceanic
05:46AM 55.9200 -28.7248 277° West 430 495 36,000  Level FlightAware Transoceanic
05:47AM 55.9343 -28.9369 277° West 430 495 36,000  Level FlightAware Transoceanic
05:48AM 55.9482 -29.1493 277° West 430 495 36,000  Level FlightAware Transoceanic
05:49AM 55.9617 -29.3617 276° West 430 495 36,000  Level FlightAware Transoceanic
05:50AM 55.9748 -29.5743 276° West 430 495 36,000  Level FlightAware Transoceanic
05:51AM 55.9876 -29.7871 276° West 430 495 36,000  Level FlightAware Transoceanic
05:52AM 55.9996 -29.9929 276° West  Level FlightAware Approximate
05:53AM 56.0113 -30.1989 276° West  Level FlightAware Approximate
05:54AM 56.0076 -30.1923 274° West  Level FlightAware Approximate
05:55AM 56.0155 -30.3988 274° West  Level FlightAware Approximate
05:56AM 56.0231 -30.6054 274° West  Level FlightAware Approximate
05:57AM 56.0303 -30.8122 274° West  Level FlightAware Approximate
05:58AM 56.0371 -31.0189 273° West  Level FlightAware Approximate
05:59AM 56.0436 -31.2258 273° West  Level FlightAware Approximate
06:00AM 56.0497 -31.4327 273° West  Level FlightAware Approximate
06:01AM 56.0555 -31.6397 273° West  Level FlightAware Approximate
06:02AM 56.0610 -31.8468 273° West  Level FlightAware Approximate
06:03AM 56.0661 -32.0539 273° West  Level FlightAware Approximate
06:04AM 56.0709 -32.2611 272° West  Level FlightAware Approximate
06:05AM 56.0753 -32.4683 272° West  Level FlightAware Approximate
06:06AM 56.0794 -32.6755 272° West  Level FlightAware Approximate
06:07AM 56.0831 -32.8828 272° West  Level FlightAware Approximate
06:08AM 56.0865 -33.0902 272° West  Level FlightAware Approximate
06:09AM 56.0895 -33.2975 272° West  Level FlightAware Approximate
06:10AM 56.0922 -33.5049 271° West  Level FlightAware Approximate
06:11AM 56.0945 -33.7124 271° West  Level FlightAware Approximate
06:12AM 56.0965 -33.9198 271° West  Level FlightAware Approximate
06:13AM 56.0981 -34.1273 271° West  Level FlightAware Approximate
06:14AM 56.0994 -34.3348 271° West  Level FlightAware Approximate
06:15AM 56.1003 -34.5423 271° West  Level FlightAware Approximate
06:16AM 56.1009 -34.7498 270° West  Level FlightAware Approximate
06:17AM 56.1012 -34.9573 270° West  Level FlightAware Approximate
06:18AM 56.1011 -35.1648 270° West  Level FlightAware Approximate
06:19AM 56.1006 -35.3723 270° West  Level FlightAware Approximate
06:20AM 56.0998 -35.5798 270° West  Level FlightAware Approximate
06:21AM 56.0987 -35.7873 270° West  Level FlightAware Approximate
06:22AM 56.0972 -35.9948 269° West  Level FlightAware Approximate
06:23AM 56.0954 -36.2022 269° West  Level FlightAware Approximate
06:24AM 56.0932 -36.4097 269° West  Level FlightAware Approximate
06:25AM 56.0906 -36.6171 269° West  Level FlightAware Approximate
06:26AM 56.0877 -36.8245 269° West  Level FlightAware Approximate
06:27AM 56.0845 -37.0318 268° West  Level FlightAware Approximate
06:28AM 56.0809 -37.2392 268° West  Level FlightAware Approximate
06:29AM 56.0770 -37.4464 268° West  Level FlightAware Approximate
06:30AM 56.0727 -37.6537 268° West  Level FlightAware Approximate
06:31AM 56.0681 -37.8608 268° West  Level FlightAware Approximate
06:32AM 56.0631 -38.0680 268° West  Level FlightAware Approximate
06:33AM 56.0578 -38.2751 267° West  Level FlightAware Approximate
06:34AM 56.0522 -38.4821 267° West  Level FlightAware Approximate
06:35AM 56.0462 -38.6890 267° West  Level FlightAware Approximate
06:36AM 56.0398 -38.8959 267° West  Level FlightAware Approximate
06:37AM 56.0331 -39.1027 267° West  Level FlightAware Approximate
06:38AM 56.0261 -39.3095 267° West  Level FlightAware Approximate
06:39AM 56.0187 -39.5161 266° West  Level FlightAware Approximate
06:40AM 56.0109 -39.7227 266° West  Level FlightAware Approximate
06:41AM 56.0028 -39.9292 266° West  Level FlightAware Approximate
06:42AM 56.0054 -40.1357 274° West  Level FlightAware Approximate
06:43AM 56.0134 -40.3426 274° West  Level FlightAware Approximate
06:44AM 56.0211 -40.5496 274° West  Level FlightAware Approximate
06:45AM 56.0284 -40.7566 274° West  Level FlightAware Approximate
06:46AM 56.0353 -40.9638 274° West  Level FlightAware Approximate
06:47AM 56.0419 -41.1710 273° West  Level FlightAware Approximate
06:48AM 56.0481 -41.3782 273° West  Level FlightAware Approximate
06:49AM 56.0541 -41.5856 273° West  Level FlightAware Approximate
06:50AM 56.0596 -41.7930 273° West  Level FlightAware Approximate
06:51AM 56.0648 -42.0004 273° West  Level FlightAware Approximate
06:52AM 56.0697 -42.2079 272° West  Level FlightAware Approximate
06:53AM 56.0742 -42.4155 272° West  Level FlightAware Approximate
06:54AM 56.0784 -42.6231 272° West  Level FlightAware Approximate
06:55AM 56.0822 -42.8307 272° West  Level FlightAware Approximate
06:56AM 56.0857 -43.0384 272° West  Level FlightAware Approximate
06:57AM 56.0888 -43.2462 272° West  Level FlightAware Approximate
06:58AM 56.0915 -43.4539 271° West  Level FlightAware Approximate
06:59AM 56.0940 -43.6617 271° West  Level FlightAware Approximate
07:00AM 56.0960 -43.8695 271° West  Level FlightAware Approximate
07:01AM 56.0978 -44.0773 271° West  Level FlightAware Approximate
07:02AM 56.0991 -44.2852 271° West  Level FlightAware Approximate
07:03AM 56.1002 -44.4930 271° West  Level FlightAware Approximate
07:04AM 56.1008 -44.7009 270° West  Level FlightAware Approximate
07:05AM 56.1012 -44.9088 270° West  Level FlightAware Approximate
07:06AM 56.1012 -45.1166 270° West  Level FlightAware Approximate
07:07AM 56.1008 -45.3245 270° West  Level FlightAware Approximate
07:08AM 56.1001 -45.5324 270° West  Level FlightAware Approximate
07:09AM 56.0990 -45.7402 270° West  Level FlightAware Approximate
07:10AM 56.0976 -45.9481 269° West  Level FlightAware Approximate
07:11AM 56.0958 -46.1559 269° West  Level FlightAware Approximate
07:12AM 56.0937 -46.3637 269° West  Level FlightAware Approximate
07:13AM 56.0912 -46.5715 269° West  Level FlightAware Approximate
07:14AM 56.0884 -46.7792 269° West  Level FlightAware Approximate
07:15AM 56.0853 -46.9870 269° West  Level FlightAware Approximate
07:16AM 56.0817 -47.1946 268° West  Level FlightAware Approximate
07:17AM 56.0779 -47.4023 268° West  Level FlightAware Approximate
07:18AM 56.0737 -47.6099 268° West  Level FlightAware Approximate
07:19AM 56.0691 -47.8174 268° West  Level FlightAware Approximate
07:20AM 56.0642 -48.0249 268° West  Level FlightAware Approximate
07:21AM 56.0590 -48.2324 267° West  Level FlightAware Approximate
07:22AM 56.0534 -48.4398 267° West  Level FlightAware Approximate
07:23AM 56.0474 -48.6471 267° West  Level FlightAware Approximate
07:24AM 56.0411 -48.8544 267° West  Level FlightAware Approximate
07:25AM 56.0345 -49.0616 267° West  Level FlightAware Approximate
07:26AM 56.0275 -49.2687 267° West  Level FlightAware Approximate
07:27AM 56.0201 -49.4757 266° West  Level FlightAware Approximate
07:28AM 56.0125 -49.6827 266° West  Level FlightAware Approximate
07:29AM 56.0044 -49.8895 266° West  Level FlightAware Approximate
07:30AM 55.9784 -50.0885 246° West  Level FlightAware Approximate
07:31AM 55.9317 -50.2780 246° West  Level FlightAware Approximate
07:32AM 55.8847 -50.4672 246° West  Level FlightAware Approximate
07:33AM 55.8375 -50.6558 246° West  Level FlightAware Approximate
07:34AM 55.7900 -50.8440 246° West  Level FlightAware Approximate
07:35AM 55.7421 -51.0318 246° West  Level FlightAware Approximate
07:36AM 55.6940 -51.2190 246° West  Level FlightAware Approximate
07:37AM 55.6457 -51.4058 245° Southwest  Level FlightAware Approximate
07:38AM 55.5970 -51.5922 245° Southwest  Level FlightAware Approximate
07:39AM 55.5480 -51.7781 245° Southwest  Level FlightAware Approximate
07:40AM 55.4988 -51.9635 245° Southwest  Level FlightAware Approximate
07:41AM 55.4493 -52.1485 245° Southwest  Level FlightAware Approximate
07:42AM 55.3995 -52.3330 245° Southwest  Level FlightAware Approximate
07:43AM 55.3494 -52.5170 244° Southwest  Level FlightAware Approximate
07:44AM 55.2991 -52.7006 244° Southwest  Level FlightAware Approximate
07:45AM 55.2485 -52.8837 244° Southwest  Level FlightAware Approximate
07:46AM 55.1976 -53.0663 244° Southwest  Level FlightAware Approximate
07:46AM 54.8667 -54.8667 238° Southwest 460 529 36,000  Level Gander Center
07:47AM 55.1464 -53.2485 244° Southwest  Level FlightAware Approximate
07:47AM 54.8167 -55.0667 247° West 460 529 36,000  Level Gander Center
07:48AM 55.0950 -53.4302 244° Southwest  Level FlightAware Approximate
07:48AM 54.7500 -55.2833 242° Southwest 460 529 36,000  Level Gander Center
07:49AM 55.0340 -53.5999 238° Southwest  Level Estimated
07:49AM 54.7000 -55.5000 248° West 460 529 36,000  Level Gander Center
07:50AM 54.9728 -53.7691 238° Southwest  Level Estimated
07:50AM 54.6500 -55.6667 243° Southwest 460 529 36,000  Level Gander Center
07:51AM 54.9106 -53.9398 238° Southwest  Level Estimated
07:51AM 54.5833 -55.8833 242° Southwest 460 529 36,000  Level Gander Center
07:52AM 54.5000 -56.0667 232° Southwest 470 541 36,000  Level Gander Center
07:53AM 54.4333 -56.2500 238° Southwest 470 541 36,000  Level Gander Center
07:54AM 54.3500 -56.4333 232° Southwest 470 541 36,000  Level Gander Center
07:55AM 54.3000 -56.6167 245° Southwest 470 541 36,000  Level Gander Center
07:56AM 54.2000 -56.8000 227° Southwest 470 541 36,000  Level Gander Center
07:57AM 54.1167 -56.9500 227° Southwest 460 529 36,000  Level Gander Center
07:58AM 54.0500 -57.1500 240° Southwest 460 529 36,000  Level Gander Center
07:59AM 53.9833 -57.3000 233° Southwest 460 529 36,000  Level Gander Center
08:00AM 53.9000 -57.4833 232° Southwest 460 529 36,000  Level Gander Center
08:01AM 53.8333 -57.6500 236° Southwest 450 518 36,000  Level Gander Center
08:02AM 53.7500 -57.8000 227° Southwest 450 518 36,000  Level Gander Center
08:03AM 53.6667 -57.9833 233° Southwest 450 518 36,000  Level Gander Center
08:04AM 53.5833 -58.1500 230° Southwest 450 518 36,000  Level Gander Center
08:05AM 53.5000 -58.2667 220° Southwest 450 518 36,000  Level Gander Center
08:06AM 53.4000 -58.4167 222° Southwest 460 529 36,000  Level Gander Center
08:07AM 53.3000 -58.5667 222° Southwest 460 529 36,000  Level Gander Center
08:08AM 53.2000 -58.7167 222° Southwest 450 518 36,000  Level Gander Center
08:09AM 53.1000 -58.8333 215° Southwest 450 518 36,000  Level Gander Center
08:10AM 53.0000 -58.9833 222° Southwest 450 518 36,000  Level Gander Center
08:11AM 52.9333 -59.1167 230° Southwest 450 518 36,000  Level Gander Center
08:12AM 52.8333 -59.2333 215° Southwest 450 518 36,000  Level Gander Center
08:13AM 52.7333 -59.3833 222° Southwest 450 518 36,000  Level Gander Center
08:14AM 52.6333 -59.4833 211° Southwest 450 518 36,000  Level Gander Center
08:15AM 52.5333 -59.6333 222° Southwest 450 518 36,000  Level Gander Center
08:16AM 52.4333 -59.7667 219° Southwest 450 518 36,000  Level Gander Center
08:17AM 52.3500 -59.8833 221° Southwest 450 518 36,000  Level Gander Center
08:18AM 52.2333 -60.0333 218° Southwest 450 518 36,000  Level Gander Center
08:19AM 52.1500 -60.1333 216° Southwest 450 518 36,000  Level Gander Center
08:20AM 52.0500 -60.2833 223° Southwest 450 518 36,000  Level Gander Center
08:21AM 51.9500 -60.4167 219° Southwest 440 506 36,000  Level Gander Center
08:22AM 51.8500 -60.5167 212° Southwest 440 506 36,000  Level Gander Center
08:23AM 51.7667 -60.6667 228° Southwest 440 506 36,000  Level Gander Center
08:24AM 51.6667 -60.7667 212° Southwest 440 506 36,000  Level Gander Center
08:25AM 51.5667 -60.9000 220° Southwest 440 506 36,000  Level Gander Center
08:26AM 51.4667 -61.0167 216° Southwest 440 506 36,000  Level Gander Center
08:27AM 51.3667 -61.1500 220° Southwest 430 495 36,000  Level Gander Center
08:28AM 51.2833 -61.2500 217° Southwest 440 506 36,000  Level Gander Center
08:29AM 51.1833 -61.3833 220° Southwest 440 506 36,000  Level Gander Center
08:30AM 51.0833 -61.5000 216° Southwest 440 506 36,000  Level Gander Center
08:31AM 50.9833 -61.6333 220° Southwest 440 506 36,000  Level Gander Center
08:32AM 50.9000 -61.7667 225° Southwest 440 506 36,000  Level Gander Center
08:33AM 50.8000 -61.8667 212° Southwest 430 495 36,000  Level Gander Center
08:34AM 50.7167 -61.9833 222° Southwest 430 495 36,000  Level Moncton Center
08:35AM 50.6167 -62.1000 217° Southwest 430 495 36,000  Level Gander Center
08:36AM 50.5333 -62.2000 217° Southwest 420 483 36,000  Level Gander Center
08:37AM 50.4333 -62.3333 220° Southwest 420 483 36,000  Level Gander Center
08:38AM 50.3333 -62.4333 213° Southwest 410 472 36,000  Level Gander Center
08:39AM 50.2500 -62.5333 218° Southwest 420 483 36,000  Level Gander Center
08:40AM 50.1500 -62.6667 221° Southwest 420 483 36,000  Level Gander Center
08:41AM 50.0667 -62.7667 218° Southwest 420 483 36,000  Level Gander Center
08:42AM 49.9500 -62.9000 216° Southwest 420 483 36,000  Level Gander Center
08:43AM 49.8667 -63.0000 218° Southwest 420 483 36,000  Level Gander Center
08:44AM 49.7667 -63.1000 213° Southwest 420 483 36,000  Level Gander Center
08:45AM 49.6833 -63.2167 222° Southwest 420 483 36,000  Level Gander Center
08:46AM 49.5833 -63.3167 213° Southwest 430 495 36,000  Level Gander Center
08:47AM 49.4833 -63.4167 213° Southwest 420 483 36,000  Level Gander Center
08:48AM 49.4000 -63.5167 218° Southwest 420 483 36,000  Level Moncton Center
08:49AM 49.3000 -63.6333 217° Southwest 420 483 36,000  Level Gander Center
08:50AM 49.2000 -63.7333 213° Southwest 420 483 36,000  Level Gander Center
08:51AM 49.1167 -63.8333 218° Southwest 420 483 36,000  Level Gander Center
08:52AM 49.0167 -63.9667 221° Southwest 420 483 36,000  Level Gander Center
08:53AM 48.9333 -64.0500 213° Southwest 430 495 36,000  Level Gander Center
08:54AM 48.8333 -64.1833 221° Southwest 430 495 36,000  Level Gander Center
08:55AM 48.7333 -64.2667 209° Southwest 440 506 36,000  Level Moncton Center
08:55AM 48.7333 -64.2667 209° Southwest 430 495 36,000  Level Gander Center
08:56AM 48.6333 -64.4000 221° Southwest 430 495 36,000  Level Moncton Center
08:57AM 48.5333 -64.4667 204° Southwest 430 495 36,000  Level Moncton Center
08:58AM 48.4500 -64.6000 227° Southwest 430 495 36,000  Level Moncton Center
08:59AM 48.3500 -64.7000 214° Southwest 430 495 36,000  Level Moncton Center
09:00AM 48.2500 -64.8000 214° Southwest 420 483 36,000  Level Moncton Center
09:01AM 48.1500 -64.9000 214° Southwest 420 483 36,000  Level Moncton Center
09:02AM 48.0667 -65.0000 219° Southwest 420 483 36,000  Level Moncton Center
09:03AM 47.9667 -65.1000 214° Southwest 420 483 36,000  Level Moncton Center
09:04AM 47.8667 -65.2000 214° Southwest 420 483 36,000  Level Moncton Center
09:05AM 47.7833 -65.3000 219° Southwest 410 472 36,000  Level Moncton Center
09:06AM 47.6833 -65.4167 218° Southwest 420 483 36,000  Level Moncton Center
09:07AM 47.6000 -65.4833 208° Southwest 420 483 36,000  Level Moncton Center
09:08AM 47.5000 -65.6167 222° Southwest 420 483 36,000  Level Moncton Center
09:09AM 47.3833 -65.7000 206° Southwest 410 472 36,000  Level Moncton Center
09:10AM 47.2833 -65.8000 214° Southwest 410 472 36,000  Level Moncton Center
09:11AM 47.2000 -65.9000 219° Southwest 420 483 36,000  Level Moncton Center
09:12AM 47.1167 -66.0000 219° Southwest 420 483 36,000  Level Moncton Center
09:13AM 47.0167 -66.0833 210° Southwest 420 483 36,000  Level Moncton Center
09:14AM 46.9167 -66.1833 214° Southwest 410 472 36,000  Level Moncton Center
09:15AM 46.8333 -66.2833 219° Southwest 410 472 36,000  Level Moncton Center
09:16AM 46.7333 -66.3833 214° Southwest 410 472 36,000  Level Moncton Center
09:17AM 46.6333 -66.4667 210° Southwest 410 472 36,000  Level Moncton Center
09:18AM 46.5333 -66.5667 215° Southwest 410 472 36,000  Level Moncton Center
09:19AM 46.4333 -66.6500 210° Southwest 410 472 36,000  Level Moncton Center
09:20AM 46.3500 -66.7500 220° Southwest 420 483 36,000  Level Moncton Center
09:21AM 46.2500 -66.8333 210° Southwest 420 483 36,000  Level Moncton Center
09:22AM 46.1667 -66.9333 220° Southwest 420 483 36,000  Level Moncton Center
09:23AM 46.0667 -67.0333 215° Southwest 420 483 36,000  Level Moncton Center
09:24AM 45.9667 -67.1333 215° Southwest 420 483 36,000  Level Moncton Center
09:25AM 45.8667 -67.2167 210° Southwest 420 483 36,000  Level Moncton Center
09:26AM 45.7667 -67.3167 215° Southwest 420 483 36,000  Level Moncton Center
09:27AM 45.6667 -67.4167 215° Southwest 420 483 36,000  Level Moncton Center
09:28AM 45.5833 -67.5000 215° Southwest 410 472 36,000  Level Moncton Center
09:29AM 45.4833 -67.6000 215° Southwest 420 483 36,000  Level Moncton Center
09:30AM 45.4000 -67.6833 215° Southwest 420 483 36,000  Level Moncton Center
09:31AM 45.3711 -67.7092 212° Southwest 421 484 36,000  Level Boston Center
09:31AM 45.2833 -67.7667 205° Southwest 420 483 36,000  Level Moncton Center
09:32AM 45.2167 -67.8833 231° Southwest 410 472 36,000  Level Moncton Center
09:33AM 45.2133 -67.9375 265° West 415 478 36,000  Level Boston Center
09:34AM 45.1389 -68.0608 229° Southwest 410 472 36,000  Level Boston Center
09:35AM 45.0622 -68.1814 228° Southwest 410 472 36,000  Level Boston Center
09:35AM 44.9853 -68.3014 228° Southwest 410 472 36,000  Level Boston Center
09:36AM 44.9081 -68.4183 227° Southwest 410 472 36,000  Level Boston Center
09:38AM 44.8308 -68.5381 228° Southwest 410 472 36,000  Level Boston Center
09:38AM 44.7514 -68.6572 227° Southwest 410 472 36,000  Level Boston Center
09:39AM 44.6739 -68.7761 228° Southwest 410 472 36,000  Level Boston Center
09:40AM 44.6044 -68.8797 227° Southwest 405 466 36,000  Level Boston Center
09:41AM 44.5286 -68.9978 228° Southwest 411 473 36,000  Level Boston Center
09:42AM 44.4489 -69.1158 227° Southwest 405 466 36,000  Level Boston Center
09:43AM 44.3708 -69.2308 227° Southwest 405 466 36,000  Level Boston Center
09:44AM 44.2928 -69.3511 228° Southwest 410 472 36,000  Level Boston Center
09:46AM 44.2144 -69.4653 226° Southwest 410 472 36,000  Level Boston Center
09:47AM 44.1361 -69.5819 227° Southwest 410 472 36,000  Level Boston Center
09:47AM 44.0556 -69.6986 226° Southwest 410 472 36,000  Level Boston Center
09:48AM 43.9711 -69.8236 227° Southwest 404 465 36,000  Level Boston Center
09:49AM 43.8944 -69.9364 227° Southwest 404 465 36,000  Level Boston Center
09:51AM 43.8136 -70.0547 227° Southwest 404 465 36,000  Level Boston Center
09:51AM 43.7386 -70.1669 227° Southwest 404 465 36,000  Level Boston Center
09:52AM 43.6636 -70.2675 224° Southwest 410 472 36,000  Level Boston Center
09:54AM 43.5844 -70.3906 228° Southwest 405 466 36,000  Level Boston Center
09:54AM 43.5053 -70.5022 226° Southwest 405 466 36,000  Level Boston Center
09:55AM 43.4278 -70.6161 227° Southwest 405 466 36,000  Level Boston Center
09:56AM 43.3569 -70.7383 231° Southwest 405 466 36,000  Level Boston Center
09:57AM 43.2878 -70.8569 231° Southwest 405 466 36,000  Level Boston Center
09:58AM 43.2164 -70.9758 231° Southwest 410 472 36,000  Level Boston Center
10:00AM 43.1467 -71.0828 228° Southwest 410 472 36,000  Level Boston Center
10:01AM 43.0586 -71.2153 228° Southwest 418 481 36,000  Level Boston Center
10:02AM 42.9869 -71.3331 230° Southwest 411 473 36,000  Level Boston Center
10:03AM 42.9006 -71.4622 228° Southwest 412 474 36,000  Level Boston Center
10:04AM 42.8286 -71.5739 229° Southwest 407 468 36,000  Level Boston Center
10:05AM 42.7542 -71.6881 228° Southwest 407 468 36,000  Level Boston Center
10:06AM 42.6800 -71.8019 228° Southwest 407 468 36,000  Level Boston Center
10:07AM 42.6056 -71.9125 228° Southwest 407 468 36,000  Level Boston Center
10:08AM 42.5308 -72.0258 228° Southwest 407 468 36,000  Level Boston Center
10:09AM 42.4583 -72.1361 228° Southwest 407 468 36,000  Level Boston Center
10:10AM 42.3836 -72.2489 228° Southwest 407 468 36,000  Level Boston Center
10:11AM 42.3067 -72.3614 227° Southwest 400 460 36,000  Level Boston Center
10:12AM 42.2336 -72.4736 229° Southwest 405 466 36,000  Level Boston Center
10:13AM 42.1564 -72.5858 227° Southwest 405 466 36,000  Level Boston Center
10:14AM 42.0811 -72.6975 228° Southwest 405 466 36,000  Level Boston Center
10:15AM 42.0164 -72.7922 227° Southwest 405 466 36,000 -60 Level Boston Center
10:16AM 41.9408 -72.9033 228° Southwest 405 466 35,900  Descending Boston Center
10:17AM 41.8633 -73.0228 229° Southwest 411 473 36,000  Climbing Boston Center
10:18AM 41.7856 -73.1333 227° Southwest 417 480 36,000  Level Boston Center
10:19AM 41.6461 -73.3308 227° Southwest 411 473 36,000  Level New York Center
10:20AM 41.5769 -73.4472 232° Southwest 411 473 36,000  Level New York Center
10:21AM 41.4992 -73.5661 229° Southwest 417 480 36,000  Level New York Center
10:22AM 41.4236 -73.6817 229° Southwest 417 480 36,000  Level New York Center
10:23AM 41.3456 -73.7972 228° Southwest 422 486 36,000  Level New York Center
10:24AM 41.2697 -73.9125 229° Southwest 422 486 36,000  Level New York Center
10:25AM 41.1917 -74.0272 228° Southwest 428 493 36,000  Level New York Center
10:26AM 41.1156 -74.1392 228° Southwest 428 493 36,000  Level New York Center
10:27AM 41.0481 -74.2458 230° Southwest 428 493 36,000  Level New York Center
10:28AM 40.9756 -74.3658 231° Southwest 428 493 36,000  Level New York Center
10:29AM 40.9033 -74.4803 230° Southwest 422 486 36,000 -120 Level New York Center
10:30AM 40.8308 -74.5969 231° Southwest 417 480 35,800 -480 Descending New York Center
10:31AM 40.7583 -74.7133 231° Southwest 417 480 35,100 -960 Descending New York Center
10:32AM 40.6856 -74.8322 231° Southwest 417 480 34,000 -600 Descending New York Center
10:33AM 40.6106 -74.9508 230° Southwest 417 480 34,000  Level New York Center
10:34AM 40.5378 -75.0611 229° Southwest 417 480 34,000  Level New York Center
10:35AM 40.4669 -75.1767 231° Southwest 417 480 34,000  Level New York Center
10:36AM 40.3958 -75.2894 230° Southwest 412 474 34,000  Level New York Center
10:37AM 40.3247 -75.4017 230° Southwest 412 474 34,000  Level New York Center
10:38AM 40.2536 -75.5139 230° Southwest 412 474 34,000  Level New York Center
10:39AM 40.1886 -75.6292 234° Southwest 412 474 34,000  Level New York Center
10:40AM 40.1225 -75.7656 238° Southwest 406 467 34,000  Level New York Center
10:41AM 40.0589 -75.8886 236° Southwest 406 467 34,000  Level New York Center
10:42AM 39.9994 -76.0061 237° Southwest 406 467 34,000  Level New York Center
10:44AM 39.9142 -76.1783 237° Southwest 405 466 34,000  Level Washington Center
10:45AM 39.8492 -76.2969 235° Southwest 405 466 34,000  Level Washington Center
10:46AM 39.7900 -76.4178 238° Southwest 405 466 34,000  Level Washington Center
10:47AM 39.7222 -76.5519 237° Southwest 410 472 34,000  Level Washington Center
10:48AM 39.6631 -76.6644 236° Southwest 416 479 34,000  Level Washington Center
10:49AM 39.6014 -76.7819 236° Southwest 416 479 34,000  Level Washington Center
10:50AM 39.5400 -76.8994 236° Southwest 410 472 34,000  Level Washington Center
10:51AM 39.4697 -77.0111 231° Southwest 410 472 34,000  Level Washington Center
10:52AM 39.3833 -77.1006 219° Southwest 405 466 34,000  Level Washington Center
10:53AM 39.2947 -77.1925 219° Southwest 405 466 34,000  Level Washington Center
10:54AM 39.2058 -77.2844 219° Southwest 410 472 34,000  Level Washington Center
10:55AM 39.1128 -77.3811 219° Southwest 410 472 34,000  Level Washington Center
10:56AM 39.0239 -77.4725 219° Southwest 405 466 34,000  Level Washington Center
10:57AM 38.9347 -77.5636 218° Southwest 405 466 34,000  Level Washington Center
10:58AM 38.8583 -77.6469 220° Southwest 410 472 34,000  Level Washington Center
10:59AM 38.7567 -77.7453 217° Southwest 417 480 34,000  Level Washington Center
11:00AM 38.6694 -77.8331 218° Southwest 417 480 34,000  Level Washington Center
11:01AM 38.5967 -77.9372 228° Southwest 407 468 34,000  Level Washington Center
11:02AM 38.5317 -78.0494 234° Southwest 402 463 34,000  Level Washington Center
11:03AM 38.4647 -78.1639 233° Southwest 402 463 34,000  Level Washington Center
11:04AM 38.3997 -78.2756 233° Southwest 402 463 34,000  Level Washington Center
11:05AM 38.3325 -78.3869 232° Southwest 402 463 34,000  Level Washington Center
11:06AM 38.2653 -78.4981 232° Southwest 402 463 34,000  Level Washington Center
11:07AM 38.2042 -78.6119 236° Southwest 402 463 34,000  Level Washington Center
11:08AM 38.1386 -78.7228 233° Southwest 402 463 34,000  Level Washington Center
11:09AM 38.0711 -78.8333 232° Southwest 402 463 34,000  Level Washington Center
11:10AM 38.0119 -78.9336 233° Southwest 408 470 34,000  Level Washington Center
11:11AM 37.9422 -79.0439 231° Southwest 402 463 34,000  Level Washington Center
11:12AM 37.8744 -79.1486 231° Southwest 402 463 34,000  Level Washington Center
11:13AM 37.8003 -79.2528 228° Southwest 407 468 34,000  Level Washington Center
11:14AM 37.7197 -79.3644 228° Southwest 407 468 34,000  Level Washington Center
11:15AM 37.6500 -79.4556 226° Southwest 402 463 34,000  Level Washington Center
11:16AM 37.5669 -79.5717 228° Southwest 402 463 34,000  Level Washington Center
11:17AM 37.4994 -79.6625 227° Southwest 402 463 34,000  Level Washington Center
11:18AM 37.4203 -79.7758 229° Southwest 408 470 34,000  Level Washington Center
11:21AM 37.1872 -80.0842 227° Southwest 420 483 34,000  Level Atlanta Center
11:22AM 37.0994 -80.2031 227° Southwest 404 465 34,000  Level Atlanta Center
11:23AM 37.0192 -80.3111 227° Southwest 423 487 34,000  Level Atlanta Center
11:24AM 36.9392 -80.4186 227° Southwest 423 487 34,000  Level Atlanta Center
11:25AM 36.8589 -80.5236 226° Southwest 423 487 34,000  Level Atlanta Center
11:26AM 36.7864 -80.6200 227° Southwest 423 487 34,000  Level Atlanta Center
11:27AM 36.7122 -80.7242 228° Southwest 423 487 34,000  Level Atlanta Center
11:28AM 36.6294 -80.8311 226° Southwest 423 487 34,000  Level Atlanta Center
11:29AM 36.5408 -80.9483 227° Southwest 423 487 34,000  Level Atlanta Center
11:30AM 36.4600 -81.0572 227° Southwest 433 498 34,000  Level Atlanta Center
11:31AM 36.3814 -81.1661 228° Southwest 428 493 34,000  Level Atlanta Center
11:32AM 36.2981 -81.2694 225° Southwest 434 499 34,000  Level Atlanta Center
11:33AM 36.2172 -81.3778 227° Southwest 428 493 34,000  Level Atlanta Center
11:34AM 36.1378 -81.4753 225° Southwest 428 493 34,000  Level Atlanta Center
11:35AM 36.0547 -81.5911 228° Southwest 433 498 34,000  Level Atlanta Center
11:36AM 35.9692 -81.6989 226° Southwest 433 498 34,000  Level Atlanta Center
11:37AM 35.8897 -81.8036 227° Southwest 433 498 34,000  Level Atlanta Center
11:38AM 35.8061 -81.9083 225° Southwest 433 498 34,000  Level Atlanta Center
11:39AM 35.7267 -82.0128 227° Southwest 427 491 34,000  Level Atlanta Center
11:40AM 35.6406 -82.1197 225° Southwest 434 499 34,000  Level Atlanta Center
11:41AM 35.5544 -82.2161 222° Southwest 429 494 34,000 -420 Level Atlanta Center
11:42AM 35.4683 -82.3150 223° Southwest 424 488 33,200 -1,020 Descending Atlanta Center
11:43AM 35.3881 -82.4058 223° Southwest 431 496 32,000 -1,320 Descending Atlanta Center
11:44AM 35.2997 -82.5067 223° Southwest 431 496 30,600 -1,620 Descending Atlanta Center
11:45AM 35.2008 -82.6153 222° Southwest 441 507 28,800 -1,800 Descending Atlanta Center
11:46AM 35.1061 -82.7236 223° Southwest 441 507 27,100 -1,260 Descending Atlanta Center
11:47AM 35.0133 -82.8267 222° Southwest 448 516 26,300 -600 Descending Atlanta Center
11:48AM 34.9244 -82.9242 222° Southwest 453 521 25,900 -540 Descending Atlanta Center
11:49AM 34.8336 -83.0189 221° Southwest 443 510 25,300 -720 Descending Atlanta Center
11:50AM 34.7444 -83.1186 223° Southwest 438 504 24,500 -660 Descending Atlanta Center
11:51AM 34.6681 -83.2078 224° Southwest 432 497 24,000 -300 Descending Atlanta Center
11:52AM 34.5808 -83.2994 221° Southwest 425 489 24,000  Level Atlanta Center
11:53AM 34.4917 -83.3986 223° Southwest 431 496 24,000 -120 Level Atlanta Center
11:54AM 34.4044 -83.4950 222° Southwest 436 502 23,800 -1,260 Descending Atlanta Center
11:55AM 34.3172 -83.5911 222° Southwest 436 502 21,500 -2,640 Descending Atlanta Center
11:56AM 34.2217 -83.6947 222° Southwest 430 495 18,500 -2,700 Descending Atlanta Center
11:57AM 34.1322 -83.7953 223° Southwest 407 468 15,600 -2,040 Descending Atlanta Center
11:58AM 34.0489 -83.8833 221° Southwest 401 461 14,100 -960 Descending Atlanta Center
11:59AM 33.9833 -83.9500 220° Southwest 389 448 14,100 -660 Level Atlanta TRACON
12:00PM 33.9167 -84.0333 226° Southwest 379 436 13,100 -1,020 Descending Atlanta TRACON
12:01PM 33.8333 -84.1167 220° Southwest 363 418 12,100 -540 Descending Atlanta TRACON
12:02PM 33.7500 -84.1667 207° Southwest 369 425 12,100 -60 Level Atlanta TRACON
12:03PM 33.6500 -84.2333 209° Southwest 356 410 12,000 -60 Descending Atlanta TRACON
12:04PM 33.5833 -84.2833 212° Southwest 300 345 12,000 -840 Level Atlanta TRACON
12:05PM 33.5500 -84.3667 244° Southwest 278 320 10,300 -1,920 Descending Atlanta TRACON
12:06PM 33.5500 -84.4500 270° West 281 323 8,200 -2,160 Descending Atlanta TRACON
12:07PM 33.5500 -84.5333 270° West 268 308 6,200 -1,800 Descending Atlanta TRACON
12:08PM 33.5667 -84.6167 284° West 266 306 4,500 -1,440 Descending Atlanta TRACON
12:09PM 33.6167 -84.5833 29° Northeast 226 260 3,300 -1,140 Descending Atlanta TRACON
12:10PM 33.6333 -84.5167 73° East 182 209 2,300 -900 Descending Atlanta TRACON
12:11PM 33.6333 -84.4667 90° East 150 173 1,500 -840 Descending Atlanta TRACON
12:13PM 33.6367 -84.4279 64° Northeast  Level Estimated